createdAt,value
2018-09-22T00:02:00.238Z,101186.52
2018-09-22T00:04:28.438Z,101183.64
2018-09-22T00:06:56.699Z,101177.87
2018-09-22T00:09:24.920Z,101182.28
2018-09-22T00:11:53.154Z,101188.38
2018-09-22T00:14:21.411Z,101192.30
2018-09-22T00:16:49.692Z,101193.24
2018-09-22T00:19:17.922Z,101196.31
2018-09-22T00:21:46.225Z,101208.64
2018-09-22T00:24:14.423Z,101201.89
2018-09-22T00:26:42.719Z,101201.39
2018-09-22T00:29:11.071Z,101205.00
2018-09-22T00:31:39.294Z,101215.17
2018-09-22T00:34:07.548Z,101219.85
2018-09-22T00:36:35.802Z,101224.30
2018-09-22T00:39:04.945Z,101230.34
2018-09-22T00:41:33.199Z,101232.92
2018-09-22T00:44:01.450Z,101229.96
2018-09-22T00:46:29.694Z,101226.97
2018-09-22T00:48:57.965Z,101225.92
2018-09-22T00:51:26.221Z,101227.72
2018-09-22T00:53:54.448Z,101232.95
2018-09-22T00:56:22.707Z,101236.17
2018-09-22T00:58:50.962Z,101239.19
2018-09-22T01:01:19.210Z,101235.78
2018-09-22T01:03:47.481Z,101238.58
2018-09-22T01:06:15.766Z,101240.39
2018-09-22T01:08:44.034Z,101235.80
2018-09-22T01:11:12.319Z,101247.64
2018-09-22T01:13:40.569Z,101252.26
2018-09-22T01:16:08.840Z,101251.95
2018-09-22T01:18:37.122Z,101244.33
2018-09-22T01:21:05.413Z,101250.28
2018-09-22T01:23:33.663Z,101254.70
2018-09-22T01:26:01.939Z,101257.42
2018-09-22T01:28:30.178Z,101257.87
2018-09-22T01:30:58.423Z,101254.44
2018-09-22T01:33:26.665Z,101256.15
2018-09-22T01:35:54.894Z,101274.47
2018-09-22T01:38:23.162Z,101275.59
2018-09-22T01:40:51.399Z,101275.70
2018-09-22T01:43:19.621Z,101282.53
2018-09-22T01:45:47.914Z,101276.33
2018-09-22T01:48:16.173Z,101284.97
2018-09-22T01:50:44.422Z,101281.05
2018-09-22T01:53:12.695Z,101296.70
2018-09-22T01:55:40.966Z,101294.75
2018-09-22T01:58:09.189Z,101295.50
2018-09-22T02:00:37.450Z,101291.15
2018-09-22T02:03:05.709Z,101291.25
2018-09-22T02:05:33.969Z,101289.06
2018-09-22T02:08:02.217Z,101287.41
2018-09-22T02:10:30.515Z,101286.98
2018-09-22T02:12:58.713Z,101286.78
2018-09-22T02:15:26.947Z,101285.54
2018-09-22T02:17:55.221Z,101283.94
2018-09-22T02:20:23.492Z,101284.69
2018-09-22T02:22:51.738Z,101291.15
2018-09-22T02:25:19.995Z,101298.47
2018-09-22T02:27:48.230Z,101292.02
2018-09-22T02:30:16.486Z,101303.23
2018-09-22T02:32:44.716Z,101298.03
2018-09-22T02:35:12.960Z,101304.13
2018-09-22T02:37:41.226Z,101302.58
2018-09-22T02:40:09.462Z,101321.22
2018-09-22T02:42:37.726Z,101315.95
2018-09-22T02:45:06.498Z,101309.50
2018-09-22T02:47:34.739Z,101317.73
2018-09-22T02:50:03.015Z,101316.87
2018-09-22T02:52:31.297Z,101317.25
2018-09-22T02:54:59.966Z,101320.48
2018-09-22T02:57:28.210Z,101319.52
2018-09-22T02:59:56.464Z,101300.41
2018-09-22T03:02:24.721Z,101306.04
2018-09-22T03:04:52.961Z,101302.59
2018-09-22T03:07:21.209Z,101300.27
2018-09-22T03:09:49.442Z,101309.44
2018-09-22T03:12:17.694Z,101323.45
2018-09-22T03:14:46.011Z,101325.09
2018-09-22T03:17:14.242Z,101310.70
2018-09-22T03:19:42.502Z,101327.73
2018-09-22T03:22:10.755Z,101318.56
2018-09-22T03:24:38.973Z,101331.59
2018-09-22T03:27:07.319Z,101323.31
2018-09-22T03:29:35.587Z,101320.76
2018-09-22T03:32:03.869Z,101322.55
2018-09-22T03:34:32.123Z,101320.95
2018-09-22T03:37:00.378Z,101327.41
2018-09-22T03:39:28.651Z,101333.13
2018-09-22T03:41:56.911Z,101330.38
2018-09-22T03:44:25.189Z,101338.33
2018-09-22T03:46:53.418Z,101337.08
2018-09-22T03:49:21.659Z,101328.28
2018-09-22T03:51:49.905Z,101330.08
2018-09-22T03:54:18.129Z,101338.37
2018-09-22T03:56:46.402Z,101342.27
2018-09-22T03:59:14.674Z,101345.20
2018-09-22T04:01:42.915Z,101334.38
2018-09-22T04:04:11.181Z,101327.40
2018-09-22T04:06:39.398Z,101327.41
2018-09-22T04:09:08.170Z,101330.52
2018-09-22T04:11:36.493Z,101330.52
2018-09-22T04:14:06.090Z,101329.17
2018-09-22T04:16:34.378Z,101327.14
2018-09-22T04:19:02.638Z,101331.42
2018-09-22T04:21:30.883Z,101332.64
2018-09-22T04:24:02.896Z,101329.05
2018-09-22T04:26:31.212Z,101330.44
2018-09-22T04:28:59.409Z,101328.62
2018-09-22T04:31:27.655Z,101325.51
2018-09-22T04:33:55.929Z,101327.73
2018-09-22T04:36:24.163Z,101332.08
2018-09-22T04:38:52.455Z,101343.86
2018-09-22T04:41:20.714Z,101353.00
2018-09-22T04:43:48.979Z,101350.84
2018-09-22T04:46:17.215Z,101352.13
2018-09-22T04:48:45.438Z,101364.70
2018-09-22T04:51:13.707Z,101361.21
2018-09-22T04:53:41.954Z,101362.50
2018-09-22T04:56:10.191Z,101358.72
2018-09-22T04:58:38.465Z,101360.38
2018-09-22T05:01:06.919Z,101370.03
2018-09-22T05:03:35.215Z,101366.13
2018-09-22T05:06:03.484Z,101375.32
2018-09-22T05:08:31.742Z,101387.41
2018-09-22T05:11:00.007Z,101379.64
2018-09-22T05:13:28.246Z,101383.09
2018-09-22T05:15:56.810Z,101390.98
2018-09-22T05:18:25.026Z,101390.16
2018-09-22T05:20:53.285Z,101391.06
2018-09-22T05:23:21.533Z,101393.13
2018-09-22T05:25:49.779Z,101398.85
2018-09-22T05:28:18.500Z,101405.77
2018-09-22T05:30:46.785Z,101405.30
2018-09-22T05:33:15.049Z,101412.30
2018-09-22T05:35:43.294Z,101419.63
2018-09-22T05:38:11.524Z,101403.15
2018-09-22T05:40:39.776Z,101410.08
2018-09-22T05:43:08.006Z,101417.11
2018-09-22T05:45:36.247Z,101425.75
2018-09-22T05:48:04.601Z,101431.44
2018-09-22T05:50:32.894Z,101441.34
2018-09-22T05:53:01.175Z,101448.38
2018-09-22T05:55:30.500Z,101447.05
2018-09-22T05:57:58.832Z,101432.61
2018-09-22T06:00:27.066Z,101443.17
2018-09-22T06:02:55.322Z,101456.66
2018-09-22T06:05:23.578Z,101446.66
2018-09-22T06:07:51.834Z,101436.22
2018-09-22T06:10:20.107Z,101438.81
2018-09-22T06:12:48.346Z,101435.36
2018-09-22T06:15:16.632Z,101441.47
2018-09-22T06:17:44.936Z,101440.11
2018-09-22T06:20:13.178Z,101437.07
2018-09-22T06:22:41.583Z,101436.59
2018-09-22T06:25:09.967Z,101427.97
2018-09-22T06:27:38.277Z,101450.14
2018-09-22T06:30:08.670Z,101452.77
2018-09-22T06:32:36.932Z,101451.89
2018-09-22T06:35:05.301Z,101449.24
2018-09-22T06:37:33.583Z,101444.05
2018-09-22T06:40:01.819Z,101442.30
2018-09-22T06:42:30.207Z,101424.45
2018-09-22T06:44:58.622Z,101427.08
2018-09-22T06:47:26.918Z,101423.22
2018-09-22T06:49:55.202Z,101414.52
2018-09-22T06:52:25.566Z,101414.89
2018-09-22T06:54:53.898Z,101412.69
2018-09-22T06:57:23.151Z,101418.43
2018-09-22T06:59:51.771Z,101410.09
2018-09-22T07:02:20.061Z,101421.45
2018-09-22T07:04:48.360Z,101411.17
2018-09-22T07:07:16.730Z,101407.66
2018-09-22T07:09:45.060Z,101419.53
2018-09-22T07:12:13.384Z,101442.19
2018-09-22T07:14:46.243Z,101443.83
2018-09-22T07:17:14.585Z,101431.08
2018-09-22T07:19:42.908Z,101425.68
2018-09-22T07:22:16.394Z,101426.79
2018-09-22T07:24:44.682Z,101430.25
2018-09-22T07:27:12.978Z,101438.69
2018-09-22T07:29:41.258Z,101439.86
2018-09-22T07:32:09.634Z,101448.14
2018-09-22T07:34:37.905Z,101450.11
2018-09-22T07:37:06.186Z,101447.37
2018-09-22T07:39:34.503Z,101457.55
2018-09-22T07:42:03.185Z,101460.42
2018-09-22T07:44:31.436Z,101460.12
2018-09-22T07:46:59.734Z,101456.47
2018-09-22T07:49:30.039Z,101463.18
2018-09-22T07:51:58.296Z,101470.63
2018-09-22T07:54:26.599Z,101473.48
2018-09-22T07:56:54.847Z,101476.05
2018-09-22T07:59:23.719Z,101477.47
2018-09-22T08:01:52.015Z,101477.48
2018-09-22T08:04:20.286Z,101478.11
2018-09-22T08:06:49.489Z,101475.27
2018-09-22T08:09:17.755Z,101461.66
2018-09-22T08:11:46.094Z,101462.27
2018-09-22T08:14:14.244Z,101462.26
2018-09-22T08:16:42.507Z,101467.50
2018-09-22T08:19:10.774Z,101459.02
2018-09-22T08:21:39.020Z,101456.25
2018-09-22T08:24:07.511Z,101471.98
2018-09-22T08:26:36.155Z,101473.60
2018-09-22T08:29:10.402Z,101481.75
2018-09-22T08:31:38.686Z,101485.73
2018-09-22T08:34:07.087Z,101478.08
2018-09-22T08:36:35.546Z,101486.86
2018-09-22T08:39:03.915Z,101483.59
2018-09-22T08:41:32.182Z,101476.49
2018-09-22T08:44:00.547Z,101469.25
2018-09-22T08:46:28.780Z,101455.70
2018-09-22T08:48:57.087Z,101443.74
2018-09-22T08:51:27.497Z,101444.02
2018-09-22T08:53:56.013Z,101442.38
2018-09-22T08:56:24.471Z,101453.44
2018-09-22T08:58:52.875Z,101460.09
2018-09-22T09:01:21.176Z,101470.17
2018-09-22T09:03:49.402Z,101462.92
2018-09-22T09:06:17.671Z,101457.81
2018-09-22T09:08:45.918Z,101443.87
2018-09-22T09:11:14.202Z,101434.79
2018-09-22T09:13:42.489Z,101434.08
2018-09-22T09:16:10.730Z,101433.64
2018-09-22T09:18:38.973Z,101438.04
2018-09-22T09:21:07.497Z,101423.98
2018-09-22T09:23:35.710Z,101416.41
2018-09-22T09:26:04.007Z,101417.98
2018-09-22T09:28:32.245Z,101425.86
2018-09-22T09:31:00.474Z,101430.52
2018-09-22T09:33:28.736Z,101422.64
2018-09-22T09:35:56.966Z,101441.92
2018-09-22T09:38:25.225Z,101434.82
2018-09-22T09:40:53.541Z,101431.11
2018-09-22T09:43:21.882Z,101433.91
2018-09-22T09:45:50.110Z,101436.42
2018-09-22T09:48:19.339Z,101417.98
2018-09-22T09:50:49.812Z,101408.12
2018-09-22T09:53:18.087Z,101405.34
2018-09-22T09:55:46.310Z,101399.22
2018-09-22T09:58:14.555Z,101390.84
2018-09-22T10:00:45.291Z,101390.09
2018-09-22T10:03:14.662Z,101381.39
2018-09-22T10:05:43.131Z,101377.53
2018-09-22T10:08:11.373Z,101381.39
2018-09-22T10:10:39.646Z,101375.27
2018-09-22T10:13:08.018Z,101367.81
2018-09-22T10:15:36.265Z,101367.84
2018-09-22T10:18:04.523Z,101367.39
2018-09-22T10:20:32.753Z,101361.83
2018-09-22T10:23:00.970Z,101363.08
2018-09-22T10:25:29.222Z,101365.06
2018-09-22T10:27:57.515Z,101368.08
2018-09-22T10:30:25.801Z,101364.76
2018-09-22T10:32:54.050Z,101354.19
2018-09-22T10:35:22.729Z,101357.48
2018-09-22T10:37:50.942Z,101356.49
2018-09-22T10:40:19.179Z,101349.16
2018-09-22T10:42:47.687Z,101345.42
2018-09-22T10:45:15.962Z,101350.73
2018-09-22T10:47:44.238Z,101351.25
2018-09-22T10:50:12.461Z,101347.33
2018-09-22T10:52:40.751Z,101345.00
2018-09-22T10:55:08.938Z,101340.30
2018-09-22T10:57:37.487Z,101333.84
2018-09-22T11:00:05.786Z,101327.23
2018-09-22T11:02:34.087Z,101323.44
2018-09-22T11:05:02.446Z,101324.27
2018-09-22T11:07:31.193Z,101322.32
2018-09-22T11:09:59.449Z,101325.13
2018-09-22T11:12:27.733Z,101325.55
2018-09-22T11:14:56.051Z,101322.32
2018-09-22T11:17:24.321Z,101318.59
2018-09-22T11:19:52.559Z,101325.87
2018-09-22T11:22:20.944Z,101330.84
2018-09-22T11:24:49.168Z,101321.29
2018-09-22T11:27:18.546Z,101318.44
2018-09-22T11:29:46.769Z,101314.63
2018-09-22T11:32:15.202Z,101321.59
2018-09-22T11:34:43.445Z,101313.98
2018-09-22T11:37:11.685Z,101312.86
2018-09-22T11:39:39.927Z,101315.40
2018-09-22T11:42:08.150Z,101308.44
2018-09-22T11:44:36.390Z,101299.73
2018-09-22T11:47:04.754Z,101289.12
2018-09-22T11:49:32.973Z,101283.95
2018-09-22T11:52:01.193Z,101281.08
2018-09-22T11:54:29.425Z,101283.97
2018-09-22T11:56:57.657Z,101269.84
2018-09-22T11:59:25.916Z,101269.59
2018-09-22T12:01:54.236Z,101260.11
2018-09-22T12:04:22.442Z,101261.66
2018-09-22T12:06:50.906Z,101260.37
2018-09-22T12:09:18.935Z,101267.20
2018-09-22T12:11:47.153Z,101264.13
2018-09-22T12:14:15.363Z,101267.87
2018-09-22T12:16:43.594Z,101275.02
2018-09-22T12:19:11.845Z,101281.42
2018-09-22T12:21:40.121Z,101282.18
2018-09-22T12:24:08.447Z,101289.20
2018-09-22T12:26:36.713Z,101287.78
2018-09-22T12:29:04.986Z,101282.47
2018-09-22T12:31:33.230Z,101280.78
2018-09-22T12:34:01.465Z,101280.33
2018-09-22T12:36:29.726Z,101274.02
2018-09-22T12:38:57.950Z,101282.32
2018-09-22T12:41:26.177Z,101282.36
2018-09-22T12:43:54.421Z,101271.37
2018-09-22T12:46:22.650Z,101264.63
2018-09-22T12:48:50.878Z,101259.76
2018-09-22T12:51:19.127Z,101261.73
2018-09-22T12:53:47.729Z,101261.47
2018-09-22T12:56:16.013Z,101272.18
2018-09-22T12:58:44.254Z,101278.23
2018-09-22T13:01:12.554Z,101277.55
2018-09-22T13:03:40.883Z,101273.73
2018-09-22T13:06:09.161Z,101276.84
2018-09-22T13:08:37.445Z,101267.70
2018-09-22T13:11:05.882Z,101262.70
2018-09-22T13:13:34.175Z,101265.70
2018-09-22T13:16:02.356Z,101257.61
2018-09-22T13:18:30.561Z,101251.05
2018-09-22T13:20:58.970Z,101253.93
2018-09-22T13:23:27.313Z,101251.16
2018-09-22T13:25:55.988Z,101250.52
2018-09-22T13:28:24.457Z,101241.81
2018-09-22T13:30:52.680Z,101240.45
2018-09-22T13:33:21.656Z,101244.57
2018-09-22T13:35:49.911Z,101243.31
2018-09-22T13:38:18.221Z,101235.78
2018-09-22T13:40:46.454Z,101230.61
2018-09-22T13:43:14.690Z,101212.90
2018-09-22T13:45:42.890Z,101217.86
2018-09-22T13:48:11.182Z,101220.63
2018-09-22T13:50:39.437Z,101216.85
2018-09-22T13:53:07.673Z,101221.75
2018-09-22T13:55:35.942Z,101235.72
2018-09-22T13:58:05.308Z,101224.92
2018-09-22T14:00:33.517Z,101236.42
2018-09-22T14:03:01.735Z,101228.87
2018-09-22T14:05:29.955Z,101225.89
2018-09-22T14:07:58.233Z,101235.00
2018-09-22T14:10:26.575Z,101230.34
2018-09-22T14:12:54.761Z,101244.37
2018-09-22T14:15:22.993Z,101267.45
2018-09-22T14:17:51.234Z,101288.18
2018-09-22T14:20:19.458Z,101300.28
2018-09-22T14:22:47.686Z,101326.27
2018-09-22T14:25:15.922Z,101331.02
2018-09-22T14:27:44.169Z,101335.78
2018-09-22T14:30:12.414Z,101336.47
2018-09-22T14:32:40.683Z,101345.44
2018-09-22T14:35:08.970Z,101340.21
2018-09-22T14:37:37.233Z,101330.21
2018-09-22T14:40:05.590Z,101319.84
2018-09-22T14:42:33.810Z,101319.72
2018-09-22T14:45:02.074Z,101319.69
2018-09-22T14:47:30.299Z,101319.19
2018-09-22T14:49:58.527Z,101324.11
2018-09-22T14:52:26.746Z,101319.19
2018-09-22T14:54:54.978Z,101311.84
2018-09-22T14:57:23.193Z,101314.86
2018-09-22T14:59:51.405Z,101312.27
2018-09-22T15:02:19.645Z,101315.02
2018-09-22T15:04:47.871Z,101319.80
2018-09-22T15:07:16.093Z,101324.58
2018-09-22T15:09:44.322Z,101318.97
2018-09-22T15:12:12.546Z,101314.75
2018-09-22T15:14:40.773Z,101308.83
2018-09-22T15:17:09.006Z,101311.31
2018-09-22T15:19:37.307Z,101313.41
2018-09-22T15:22:05.633Z,101322.56
2018-09-22T15:24:33.881Z,101331.61
2018-09-22T15:27:02.118Z,101320.70
2018-09-22T15:29:30.333Z,101333.00
2018-09-22T15:31:58.571Z,101339.16
2018-09-22T15:37:00.426Z,101325.28
2018-09-22T15:39:28.636Z,101332.74
2018-09-22T15:41:56.874Z,101330.46
2018-09-22T15:44:25.161Z,101322.89
2018-09-22T15:46:53.400Z,101329.66
2018-09-22T15:49:21.641Z,101330.49
2018-09-22T15:51:49.909Z,101328.81
2018-09-22T15:54:18.146Z,101329.86
2018-09-22T15:56:46.366Z,101329.52
2018-09-22T15:59:14.637Z,101332.95
2018-09-22T16:01:42.918Z,101329.17
2018-09-22T16:04:11.154Z,101324.23
2018-09-22T16:06:39.380Z,101325.16
2018-09-22T16:09:08.819Z,101321.52
2018-09-22T16:11:37.127Z,101323.98
2018-09-22T16:14:05.385Z,101330.56
2018-09-22T16:16:33.811Z,101325.73
2018-09-22T16:19:02.278Z,101322.45
2018-09-22T16:21:30.757Z,101325.73
2018-09-22T16:23:58.983Z,101335.66
2018-09-22T16:26:27.218Z,101331.59
2018-09-22T16:28:55.476Z,101334.79
2018-09-22T16:31:23.918Z,101326.09
2018-09-22T16:33:52.188Z,101327.23
2018-09-22T16:36:20.650Z,101319.86
2018-09-22T16:38:48.990Z,101321.43
2018-09-22T16:41:17.339Z,101313.21
2018-09-22T16:43:45.553Z,101306.80
2018-09-22T16:46:13.795Z,101308.62
2018-09-22T16:48:42.074Z,101305.67
2018-09-22T16:51:10.312Z,101309.19
2018-09-22T16:53:38.546Z,101315.51
2018-09-22T16:56:06.810Z,101310.74
2018-09-22T16:58:35.109Z,101311.06
2018-09-22T17:01:03.305Z,101312.52
2018-09-22T17:03:31.526Z,101312.43
2018-09-22T17:05:59.770Z,101307.34
2018-09-22T17:08:38.113Z,101309.59
2018-09-22T17:11:06.339Z,101291.16
2018-09-22T17:13:34.583Z,101297.73
2018-09-22T17:16:02.887Z,101285.25
2018-09-22T17:18:31.103Z,101294.00
2018-09-22T17:20:59.326Z,101300.42
2018-09-22T17:23:27.570Z,101300.50
2018-09-22T17:25:55.820Z,101308.41
2018-09-22T17:28:24.061Z,101300.60
2018-09-22T17:30:52.533Z,101290.65
2018-09-22T17:33:20.867Z,101285.97
2018-09-22T17:35:49.181Z,101290.61
2018-09-22T17:38:17.418Z,101295.98
2018-09-22T17:40:45.655Z,101291.61
2018-09-22T17:43:13.921Z,101288.60
2018-09-22T17:45:42.129Z,101292.11
2018-09-22T17:48:10.381Z,101282.86
2018-09-22T17:50:38.605Z,101285.08
2018-09-22T17:53:06.869Z,101282.85
2018-09-22T17:55:35.138Z,101277.17
2018-09-22T17:58:03.392Z,101285.92
2018-09-22T18:00:31.650Z,101285.86
2018-09-22T18:02:59.893Z,101285.92
2018-09-22T18:05:28.158Z,101277.24
2018-09-22T18:07:56.419Z,101267.24
2018-09-22T18:10:24.658Z,101277.56
2018-09-22T18:12:52.910Z,101276.72
2018-09-22T18:15:21.153Z,101277.62
2018-09-22T18:17:49.411Z,101287.25
2018-09-22T18:20:17.662Z,101276.77
2018-09-22T18:22:45.894Z,101275.96
2018-09-22T18:25:14.282Z,101275.84
2018-09-22T18:27:42.529Z,101286.31
2018-09-22T18:30:10.779Z,101288.95
2018-09-22T18:32:38.993Z,101294.28
2018-09-22T18:35:07.271Z,101301.13
2018-09-22T18:37:35.506Z,101299.44
2018-09-22T18:40:03.801Z,101299.81
2018-09-22T18:42:32.033Z,101296.34
2018-09-22T18:45:00.328Z,101294.16
2018-09-22T18:47:28.618Z,101282.05
2018-09-22T18:49:56.944Z,101285.04
2018-09-22T18:52:25.258Z,101294.67
2018-09-22T18:54:53.505Z,101302.92
2018-09-22T18:57:21.763Z,101301.66
2018-09-22T18:59:49.989Z,101299.45
2018-09-22T19:02:18.228Z,101294.64
2018-09-22T19:04:46.433Z,101290.72
2018-09-22T19:07:14.662Z,101281.53
2018-09-22T19:09:42.941Z,101286.41
2018-09-22T19:12:11.191Z,101301.13
2018-09-22T19:14:45.149Z,101294.23
2018-09-22T19:17:16.690Z,101301.20
2018-09-22T19:19:49.878Z,101312.05
2018-09-22T19:22:21.869Z,101289.44
2018-09-22T19:24:53.963Z,101281.23
2018-09-22T19:27:28.400Z,101283.90
2018-09-22T19:31:02.637Z,101280.38
2018-09-22T19:33:34.394Z,101275.64
2018-09-22T19:36:37.794Z,101275.71
2018-09-22T19:39:12.455Z,101277.03
2018-09-22T19:41:48.369Z,101278.27
2018-09-22T19:44:21.338Z,101266.17
2018-09-22T19:48:56.850Z,101279.62
2018-09-22T19:51:27.126Z,101275.77
2018-09-22T19:53:56.421Z,101273.58
2018-09-22T19:56:24.664Z,101260.89
2018-09-22T19:58:52.917Z,101256.19
2018-09-22T20:01:21.155Z,101261.78
2018-09-22T20:03:49.415Z,101264.00
2018-09-22T20:06:17.674Z,101264.02
2018-09-22T20:08:45.945Z,101269.23
2018-09-22T20:11:14.201Z,101264.47
2018-09-22T20:13:42.527Z,101253.98
2018-09-22T20:16:10.769Z,101247.07
2018-09-22T20:18:39.022Z,101239.21
2018-09-22T20:21:07.273Z,101245.80
2018-09-22T20:23:35.501Z,101233.70
2018-09-22T20:26:03.803Z,101233.73
2018-09-22T20:28:32.804Z,101237.55
2018-09-22T20:31:01.925Z,101241.86
2018-09-22T20:33:30.212Z,101254.94
2018-09-22T20:35:58.454Z,101256.64
2018-09-22T20:38:26.670Z,101262.25
2018-09-22T20:40:54.934Z,101255.28
2018-09-22T20:43:23.178Z,101235.30
2018-09-22T20:45:51.415Z,101227.27
2018-09-22T20:48:19.677Z,101215.40
2018-09-22T20:50:47.909Z,101216.30
2018-09-22T20:53:16.161Z,101224.14
2018-09-22T20:55:44.866Z,101215.43
2018-09-22T20:58:13.131Z,101218.42
2018-09-22T21:00:41.404Z,101205.39
2018-09-22T21:03:09.625Z,101209.75
2018-09-22T21:05:37.891Z,101208.77
2018-09-22T21:08:06.293Z,101202.25
2018-09-22T21:10:34.548Z,101197.05
2018-09-22T21:13:02.778Z,101193.56
2018-09-22T21:15:31.022Z,101195.31
2018-09-22T21:17:59.260Z,101186.20
2018-09-22T21:20:27.502Z,101193.55
2018-09-22T21:22:55.721Z,101183.52
2018-09-22T21:25:23.955Z,101182.56
2018-09-22T21:27:52.192Z,101176.59
2018-09-22T21:30:20.416Z,101164.09
2018-09-22T21:32:48.639Z,101173.71
2018-09-22T21:35:16.922Z,101171.55
2018-09-22T21:37:45.144Z,101160.61
2018-09-22T21:40:13.394Z,101165.91
2018-09-22T21:42:41.621Z,101157.64
2018-09-22T21:45:09.855Z,101151.98
2018-09-22T21:47:38.101Z,101142.39
2018-09-22T21:50:06.359Z,101144.91
2018-09-22T21:52:34.594Z,101143.69
2018-09-22T21:55:02.860Z,101142.33
2018-09-22T21:57:31.134Z,101140.50
2018-09-22T21:59:59.542Z,101137.95
2018-09-22T22:02:27.900Z,101136.67
2018-09-22T22:04:56.319Z,101128.42
2018-09-22T22:07:24.570Z,101136.88
2018-09-22T22:09:52.785Z,101134.28
2018-09-22T22:12:21.018Z,101133.70
2018-09-22T22:14:49.264Z,101121.17
2018-09-22T22:17:17.584Z,101128.08
2018-09-22T22:19:46.843Z,101126.79
2018-09-22T22:22:15.372Z,101130.34
2018-09-22T22:24:43.691Z,101124.70
2018-09-22T22:27:11.927Z,101109.50
2018-09-22T22:29:40.179Z,101091.73
2018-09-22T22:32:08.402Z,101099.10
2018-09-22T22:34:36.663Z,101100.38
2018-09-22T22:37:04.874Z,101095.67
2018-09-22T22:39:33.097Z,101098.25
2018-09-22T22:42:01.432Z,101102.61
2018-09-22T22:44:29.722Z,101106.94
2018-09-22T22:46:58.014Z,101098.22
2018-09-22T22:49:26.299Z,101081.69
2018-09-22T22:51:54.570Z,101074.63
2018-09-22T22:54:22.809Z,101067.26
2018-09-22T22:56:51.161Z,101072.05
2018-09-22T22:59:19.470Z,101073.78
2018-09-22T23:01:47.841Z,101068.13
2018-09-22T23:04:16.087Z,101067.65
2018-09-22T23:06:44.365Z,101074.09
2018-09-22T23:09:12.605Z,101078.06
2018-09-22T23:11:40.865Z,101076.80
2018-09-22T23:14:09.266Z,101069.91
2018-09-22T23:16:37.522Z,101060.84
2018-09-22T23:19:05.976Z,101059.89
2018-09-22T23:21:34.210Z,101054.59
2018-09-22T23:24:02.447Z,101059.44
2018-09-22T23:26:30.704Z,101048.05
2018-09-22T23:28:58.932Z,101039.85
2018-09-22T23:31:27.183Z,101040.17
2018-09-22T23:33:55.434Z,101042.38
2018-09-22T23:36:23.710Z,101040.28
2018-09-22T23:38:51.970Z,101034.16
2018-09-22T23:41:20.239Z,101037.66
2018-09-22T23:43:48.460Z,101024.53
2018-09-22T23:46:16.799Z,101009.69
2018-09-22T23:48:45.034Z,101002.70
2018-09-22T23:51:13.293Z,100997.86
2018-09-22T23:53:41.518Z,100995.47
2018-09-22T23:56:09.782Z,100999.03
2018-09-22T23:58:38.037Z,101002.09
